sensor_id;sensor_type;location;lat;lon;timestamp;temperature;humidity
75985;DHT22;65033;44.660;37.758;2023-01-19T00:00:33;27.42;42.68
75985;DHT22;65033;44.660;37.758;2023-01-19T00:01:37;27.41;42.67
75985;DHT22;65033;44.660;37.758;2023-01-19T00:02:41;27.41;42.66
75985;DHT22;65033;44.660;37.758;2023-01-19T00:03:45;27.42;42.64
75985;DHT22;65033;44.660;37.758;2023-01-19T00:04:48;27.43;42.65
75985;DHT22;65033;44.660;37.758;2023-01-19T00:05:52;27.41;42.59
75985;DHT22;65033;44.660;37.758;2023-01-19T00:06:55;27.42;42.45
75985;DHT22;65033;44.660;37.758;2023-01-19T00:08:00;27.42;42.45
75985;DHT22;65033;44.660;37.758;2023-01-19T00:09:16;27.43;42.46
75985;DHT22;65033;44.660;37.758;2023-01-19T00:10:20;27.41;42.43
75985;DHT22;65033;44.660;37.758;2023-01-19T00:11:23;27.42;42.36
75985;DHT22;65033;44.660;37.758;2023-01-19T00:12:27;27.42;42.50
75985;DHT22;65033;44.660;37.758;2023-01-19T00:13:30;27.42;42.47
75985;DHT22;65033;44.660;37.758;2023-01-19T00:14:36;27.41;42.47
75985;DHT22;65033;44.660;37.758;2023-01-19T00:15:40;27.42;42.45
75985;DHT22;65033;44.660;37.758;2023-01-19T00:16:43;27.42;42.40
75985;DHT22;65033;44.660;37.758;2023-01-19T00:17:46;27.43;42.52
75985;DHT22;65033;44.660;37.758;2023-01-19T00:18:50;27.42;42.42
75985;DHT22;65033;44.660;37.758;2023-01-19T00:19:54;27.43;42.42
75985;DHT22;65033;44.660;37.758;2023-01-19T00:20:57;27.43;42.37
75985;DHT22;65033;44.660;37.758;2023-01-19T00:22:00;27.42;42.45
75985;DHT22;65033;44.660;37.758;2023-01-19T00:23:05;27.41;42.39
75985;DHT22;65033;44.660;37.758;2023-01-19T00:24:10;27.42;42.33
75985;DHT22;65033;44.660;37.758;2023-01-19T00:25:13;27.43;42.32
75985;DHT22;65033;44.660;37.758;2023-01-19T00:26:17;27.42;42.36
75985;DHT22;65033;44.660;37.758;2023-01-19T00:27:21;27.41;42.27
75985;DHT22;65033;44.660;37.758;2023-01-19T00:28:24;27.41;42.26
75985;DHT22;65033;44.660;37.758;2023-01-19T00:29:27;27.42;42.36
75985;DHT22;65033;44.660;37.758;2023-01-19T00:30:35;27.40;42.26
75985;DHT22;65033;44.660;37.758;2023-01-19T00:31:38;27.42;42.29
75985;DHT22;65033;44.660;37.758;2023-01-19T00:32:42;27.41;42.10
75985;DHT22;65033;44.660;37.758;2023-01-19T00:33:45;27.41;42.13
75985;DHT22;65033;44.660;37.758;2023-01-19T00:34:51;27.41;42.05
75985;DHT22;65033;44.660;37.758;2023-01-19T00:35:54;27.42;42.16
75985;DHT22;65033;44.660;37.758;2023-01-19T00:36:58;27.41;41.91
75985;DHT22;65033;44.660;37.758;2023-01-19T00:38:05;27.41;42.04
75985;DHT22;65033;44.660;37.758;2023-01-19T00:39:09;27.40;42.07
75985;DHT22;65033;44.660;37.758;2023-01-19T00:40:12;27.39;42.10
75985;DHT22;65033;44.660;37.758;2023-01-19T00:41:15;27.41;42.01
75985;DHT22;65033;44.660;37.758;2023-01-19T00:42:19;27.40;41.88
75985;DHT22;65033;44.660;37.758;2023-01-19T00:43:40;27.39;41.91
75985;DHT22;65033;44.660;37.758;2023-01-19T00:44:46;27.40;41.95
75985;DHT22;65033;44.660;37.758;2023-01-19T00:45:49;27.40;41.87
75985;DHT22;65033;44.660;37.758;2023-01-19T00:46:53;27.40;41.94
75985;DHT22;65033;44.660;37.758;2023-01-19T00:47:56;27.39;41.97
75985;DHT22;65033;44.660;37.758;2023-01-19T00:49:00;27.40;41.94
75985;DHT22;65033;44.660;37.758;2023-01-19T00:50:03;27.40;41.88
75985;DHT22;65033;44.660;37.758;2023-01-19T00:51:07;27.40;41.89
75985;DHT22;65033;44.660;37.758;2023-01-19T00:52:10;27.40;41.90
75985;DHT22;65033;44.660;37.758;2023-01-19T00:53:15;27.39;41.72
75985;DHT22;65033;44.660;37.758;2023-01-19T00:54:18;27.40;41.76
75985;DHT22;65033;44.660;37.758;2023-01-19T00:55:22;27.40;41.81
75985;DHT22;65033;44.660;37.758;2023-01-19T00:56:25;27.42;41.86
75985;DHT22;65033;44.660;37.758;2023-01-19T00:57:29;27.41;41.67
75985;DHT22;65033;44.660;37.758;2023-01-19T00:58:32;27.40;41.80
75985;DHT22;65033;44.660;37.758;2023-01-19T00:59:35;27.40;41.84
75985;DHT22;65033;44.660;37.758;2023-01-19T01:00:38;27.41;41.76
75985;DHT22;65033;44.660;37.758;2023-01-19T01:01:42;27.41;41.68
75985;DHT22;65033;44.660;37.758;2023-01-19T01:02:50;27.40;41.59
75985;DHT22;65033;44.660;37.758;2023-01-19T01:03:53;27.41;41.59
75985;DHT22;65033;44.660;37.758;2023-01-19T01:04:57;27.41;41.62
75985;DHT22;65033;44.660;37.758;2023-01-19T01:06:05;27.40;41.57
75985;DHT22;65033;44.660;37.758;2023-01-19T01:07:10;27.40;41.41
75985;DHT22;65033;44.660;37.758;2023-01-19T01:08:15;27.40;41.45
75985;DHT22;65033;44.660;37.758;2023-01-19T01:09:18;27.40;41.70
75985;DHT22;65033;44.660;37.758;2023-01-19T01:10:24;27.41;41.60
75985;DHT22;65033;44.660;37.758;2023-01-19T01:11:27;27.40;41.64
75985;DHT22;65033;44.660;37.758;2023-01-19T01:12:30;27.39;41.58
75985;DHT22;65033;44.660;37.758;2023-01-19T01:13:34;27.39;41.51
75985;DHT22;65033;44.660;37.758;2023-01-19T01:14:37;27.39;41.55
75985;DHT22;65033;44.660;37.758;2023-01-19T01:15:41;27.40;41.50
75985;DHT22;65033;44.660;37.758;2023-01-19T01:16:44;27.40;41.53
75985;DHT22;65033;44.660;37.758;2023-01-19T01:17:47;27.39;41.26
75985;DHT22;65033;44.660;37.758;2023-01-19T01:18:51;27.40;41.30
75985;DHT22;65033;44.660;37.758;2023-01-19T01:19:54;27.40;41.41
75985;DHT22;65033;44.660;37.758;2023-01-19T01:21:00;27.39;41.41
75985;DHT22;65033;44.660;37.758;2023-01-19T01:22:06;27.40;41.31
75985;DHT22;65033;44.660;37.758;2023-01-19T01:23:09;27.40;41.27
75985;DHT22;65033;44.660;37.758;2023-01-19T01:24:14;27.39;41.39
75985;DHT22;65033;44.660;37.758;2023-01-19T01:25:19;27.40;41.34
75985;DHT22;65033;44.660;37.758;2023-01-19T01:26:24;27.38;41.33
75985;DHT22;65033;44.660;37.758;2023-01-19T01:27:29;27.39;41.17
75985;DHT22;65033;44.660;37.758;2023-01-19T01:28:32;27.40;41.26
75985;DHT22;65033;44.660;37.758;2023-01-19T01:29:35;27.39;41.21
75985;DHT22;65033;44.660;37.758;2023-01-19T01:30:39;27.39;41.29
75985;DHT22;65033;44.660;37.758;2023-01-19T01:31:43;27.39;41.21
75985;DHT22;65033;44.660;37.758;2023-01-19T01:32:48;27.39;41.13
75985;DHT22;65033;44.660;37.758;2023-01-19T01:33:52;27.39;41.18
75985;DHT22;65033;44.660;37.758;2023-01-19T01:34:55;27.38;41.32
75985;DHT22;65033;44.660;37.758;2023-01-19T01:35:58;27.37;41.29
75985;DHT22;65033;44.660;37.758;2023-01-19T01:37:01;27.38;41.04
75985;DHT22;65033;44.660;37.758;2023-01-19T01:38:05;27.38;41.07
75985;DHT22;65033;44.660;37.758;2023-01-19T01:39:08;27.39;41.23
75985;DHT22;65033;44.660;37.758;2023-01-19T01:40:15;27.38;41.20
75985;DHT22;65033;44.660;37.758;2023-01-19T01:41:21;27.39;41.11
75985;DHT22;65033;44.660;37.758;2023-01-19T01:42:26;27.38;41.16
75985;DHT22;65033;44.660;37.758;2023-01-19T01:43:42;27.40;41.25
75985;DHT22;65033;44.660;37.758;2023-01-19T01:44:48;27.39;41.13
75985;DHT22;65033;44.660;37.758;2023-01-19T01:45:52;27.38;41.08
75985;DHT22;65033;44.660;37.758;2023-01-19T01:46:57;27.38;41.10
75985;DHT22;65033;44.660;37.758;2023-01-19T01:48:03;27.39;40.97
75985;DHT22;65033;44.660;37.758;2023-01-19T01:49:11;27.38;41.08
75985;DHT22;65033;44.660;37.758;2023-01-19T01:50:17;27.38;41.04
75985;DHT22;65033;44.660;37.758;2023-01-19T01:51:26;27.39;41.14
75985;DHT22;65033;44.660;37.758;2023-01-19T01:52:31;27.38;40.96
75985;DHT22;65033;44.660;37.758;2023-01-19T01:53:36;27.39;40.94
75985;DHT22;65033;44.660;37.758;2023-01-19T01:54:41;27.38;40.95
75985;DHT22;65033;44.660;37.758;2023-01-19T01:55:48;27.38;41.00
75985;DHT22;65033;44.660;37.758;2023-01-19T01:56:53;27.39;40.90
75985;DHT22;65033;44.660;37.758;2023-01-19T01:58:01;27.38;40.74
75985;DHT22;65033;44.660;37.758;2023-01-19T01:59:08;27.38;40.86
75985;DHT22;65033;44.660;37.758;2023-01-19T02:00:13;27.38;40.81
75985;DHT22;65033;44.660;37.758;2023-01-19T02:01:18;27.38;40.74
75985;DHT22;65033;44.660;37.758;2023-01-19T02:02:40;27.37;40.68
75985;DHT22;65033;44.660;37.758;2023-01-19T02:03:53;27.38;40.81
75985;DHT22;65033;44.660;37.758;2023-01-19T02:04:59;27.38;40.86
75985;DHT22;65033;44.660;37.758;2023-01-19T02:06:06;27.37;40.81
75985;DHT22;65033;44.660;37.758;2023-01-19T02:07:14;27.39;40.70
75985;DHT22;65033;44.660;37.758;2023-01-19T02:08:41;27.37;40.96
75985;DHT22;65033;44.660;37.758;2023-01-19T02:10:04;27.36;40.94
75985;DHT22;65033;44.660;37.758;2023-01-19T02:11:28;27.37;40.82
75985;DHT22;65033;44.660;37.758;2023-01-19T02:12:50;27.36;40.78
75985;DHT22;65033;44.660;37.758;2023-01-19T02:14:12;27.36;40.85
75985;DHT22;65033;44.660;37.758;2023-01-19T02:15:17;27.35;40.84
75985;DHT22;65033;44.660;37.758;2023-01-19T02:16:22;27.36;40.81
75985;DHT22;65033;44.660;37.758;2023-01-19T02:17:25;27.36;40.94
75985;DHT22;65033;44.660;37.758;2023-01-19T02:18:30;27.34;40.80
75985;DHT22;65033;44.660;37.758;2023-01-19T02:19:40;27.35;40.59
75985;DHT22;65033;44.660;37.758;2023-01-19T02:20:51;27.36;40.64
75985;DHT22;65033;44.660;37.758;2023-01-19T02:22:01;27.36;40.59
75985;DHT22;65033;44.660;37.758;2023-01-19T02:23:16;27.35;40.66
75985;DHT22;65033;44.660;37.758;2023-01-19T02:24:23;27.36;40.29
75985;DHT22;65033;44.660;37.758;2023-01-19T02:25:27;27.36;40.59
75985;DHT22;65033;44.660;37.758;2023-01-19T02:26:35;27.36;40.59
75985;DHT22;65033;44.660;37.758;2023-01-19T02:27:39;27.35;40.56
75985;DHT22;65033;44.660;37.758;2023-01-19T02:28:45;27.35;40.34
75985;DHT22;65033;44.660;37.758;2023-01-19T02:29:51;27.35;40.61
75985;DHT22;65033;44.660;37.758;2023-01-19T02:30:55;27.36;40.59
75985;DHT22;65033;44.660;37.758;2023-01-19T02:31:58;27.36;40.51
75985;DHT22;65033;44.660;37.758;2023-01-19T02:33:02;27.35;40.46
75985;DHT22;65033;44.660;37.758;2023-01-19T02:34:08;27.36;40.45
75985;DHT22;65033;44.660;37.758;2023-01-19T02:35:14;27.36;40.55
75985;DHT22;65033;44.660;37.758;2023-01-19T02:36:21;27.36;40.55
75985;DHT22;65033;44.660;37.758;2023-01-19T02:37:28;27.35;40.55
75985;DHT22;65033;44.660;37.758;2023-01-19T02:38:35;27.35;40.63
75985;DHT22;65033;44.660;37.758;2023-01-19T02:39:46;27.37;40.55
75985;DHT22;65033;44.660;37.758;2023-01-19T02:40:54;27.37;40.62
75985;DHT22;65033;44.660;37.758;2023-01-19T02:42:00;27.37;40.43
75985;DHT22;65033;44.660;37.758;2023-01-19T02:43:05;27.37;40.40
75985;DHT22;65033;44.660;37.758;2023-01-19T02:44:11;27.36;40.46
75985;DHT22;65033;44.660;37.758;2023-01-19T02:45:17;27.35;40.31
75985;DHT22;65033;44.660;37.758;2023-01-19T02:46:21;27.36;40.38
75985;DHT22;65033;44.660;37.758;2023-01-19T02:47:24;27.35;40.26
75985;DHT22;65033;44.660;37.758;2023-01-19T02:48:28;27.35;40.18
75985;DHT22;65033;44.660;37.758;2023-01-19T02:49:31;27.35;40.31
75985;DHT22;65033;44.660;37.758;2023-01-19T02:50:40;27.36;40.17
75985;DHT22;65033;44.660;37.758;2023-01-19T02:51:43;27.35;40.07
75985;DHT22;65033;44.660;37.758;2023-01-19T02:52:47;27.36;39.76
75985;DHT22;65033;44.660;37.758;2023-01-19T02:54:13;27.34;40.10
75985;DHT22;65033;44.660;37.758;2023-01-19T02:55:25;27.35;40.24
75985;DHT22;65033;44.660;37.758;2023-01-19T02:58:10;27.35;40.10
75985;DHT22;65033;44.660;37.758;2023-01-19T02:59:28;27.34;40.04
75985;DHT22;65033;44.660;37.758;2023-01-19T03:00:45;27.34;40.01
75985;DHT22;65033;44.660;37.758;2023-01-19T03:02:05;27.34;40.18
75985;DHT22;65033;44.660;37.758;2023-01-19T03:03:22;27.34;40.07
75985;DHT22;65033;44.660;37.758;2023-01-19T03:04:34;27.32;40.09
75985;DHT22;65033;44.660;37.758;2023-01-19T03:05:52;27.32;40.04
75985;DHT22;65033;44.660;37.758;2023-01-19T03:07:01;27.32;40.07
75985;DHT22;65033;44.660;37.758;2023-01-19T03:08:15;27.30;39.81
75985;DHT22;65033;44.660;37.758;2023-01-19T03:09:27;27.32;40.01
75985;DHT22;65033;44.660;37.758;2023-01-19T03:10:41;27.31;40.08
75985;DHT22;65033;44.660;37.758;2023-01-19T03:11:49;27.31;40.07
75985;DHT22;65033;44.660;37.758;2023-01-19T03:13:00;27.30;39.79
75985;DHT22;65033;44.660;37.758;2023-01-19T03:14:08;27.31;39.94
75985;DHT22;65033;44.660;37.758;2023-01-19T03:15:18;27.31;39.77
75985;DHT22;65033;44.660;37.758;2023-01-19T03:16:24;27.31;39.85
75985;DHT22;65033;44.660;37.758;2023-01-19T03:17:32;27.31;39.77
75985;DHT22;65033;44.660;37.758;2023-01-19T03:18:37;27.30;39.92
75985;DHT22;65033;44.660;37.758;2023-01-19T03:19:43;27.31;39.85
75985;DHT22;65033;44.660;37.758;2023-01-19T03:20:51;27.31;39.91
75985;DHT22;65033;44.660;37.758;2023-01-19T03:21:57;27.30;39.93
75985;DHT22;65033;44.660;37.758;2023-01-19T03:23:04;27.31;39.70
75985;DHT22;65033;44.660;37.758;2023-01-19T03:24:11;27.31;39.97
75985;DHT22;65033;44.660;37.758;2023-01-19T03:25:16;27.32;39.91
75985;DHT22;65033;44.660;37.758;2023-01-19T03:26:26;27.31;39.88
75985;DHT22;65033;44.660;37.758;2023-01-19T03:27:31;27.30;39.71
75985;DHT22;65033;44.660;37.758;2023-01-19T03:28:39;27.31;39.88
75985;DHT22;65033;44.660;37.758;2023-01-19T03:29:47;27.31;39.91
75985;DHT22;65033;44.660;37.758;2023-01-19T03:30:57;27.32;39.82
75985;DHT22;65033;44.660;37.758;2023-01-19T03:32:03;27.31;39.44
75985;DHT22;65033;44.660;37.758;2023-01-19T03:33:14;27.30;39.64
75985;DHT22;65033;44.660;37.758;2023-01-19T03:34:20;27.31;39.70
75985;DHT22;65033;44.660;37.758;2023-01-19T03:35:28;27.30;39.59
75985;DHT22;65033;44.660;37.758;2023-01-19T03:36:35;27.30;39.62
75985;DHT22;65033;44.660;37.758;2023-01-19T03:37:41;27.31;39.42
75985;DHT22;65033;44.660;37.758;2023-01-19T03:38:47;27.28;39.49
75985;DHT22;65033;44.660;37.758;2023-01-19T03:39:51;27.29;39.60
75985;DHT22;65033;44.660;37.758;2023-01-19T03:41:01;27.29;39.40
75985;DHT22;65033;44.660;37.758;2023-01-19T03:42:10;27.28;39.43
75985;DHT22;65033;44.660;37.758;2023-01-19T03:43:15;27.28;39.48
75985;DHT22;65033;44.660;37.758;2023-01-19T03:44:21;27.29;39.27
75985;DHT22;65033;44.660;37.758;2023-01-19T03:45:25;27.29;39.32
75985;DHT22;65033;44.660;37.758;2023-01-19T03:46:30;27.29;39.44
75985;DHT22;65033;44.660;37.758;2023-01-19T03:47:34;27.28;39.40
75985;DHT22;65033;44.660;37.758;2023-01-19T03:48:38;27.29;39.36
75985;DHT22;65033;44.660;37.758;2023-01-19T03:49:43;27.29;39.52
75985;DHT22;65033;44.660;37.758;2023-01-19T03:50:47;27.28;39.45
75985;DHT22;65033;44.660;37.758;2023-01-19T03:51:54;27.29;39.47
75985;DHT22;65033;44.660;37.758;2023-01-19T03:53:05;27.29;39.35
75985;DHT22;65033;44.660;37.758;2023-01-19T03:54:09;27.29;39.36
75985;DHT22;65033;44.660;37.758;2023-01-19T03:55:12;27.29;39.48
75985;DHT22;65033;44.660;37.758;2023-01-19T03:56:17;27.30;39.42
75985;DHT22;65033;44.660;37.758;2023-01-19T03:57:22;27.28;39.39
75985;DHT22;65033;44.660;37.758;2023-01-19T03:58:26;27.30;39.35
75985;DHT22;65033;44.660;37.758;2023-01-19T03:59:30;27.31;39.41
75985;DHT22;65033;44.660;37.758;2023-01-19T04:00:34;27.30;39.31
75985;DHT22;65033;44.660;37.758;2023-01-19T04:01:38;27.30;39.28
75985;DHT22;65033;44.660;37.758;2023-01-19T04:02:42;27.30;39.23
75985;DHT22;65033;44.660;37.758;2023-01-19T04:03:46;27.29;39.22
75985;DHT22;65033;44.660;37.758;2023-01-19T04:04:49;27.29;39.33
75985;DHT22;65033;44.660;37.758;2023-01-19T04:05:53;27.28;39.20
75985;DHT22;65033;44.660;37.758;2023-01-19T04:06:58;27.28;39.14
75985;DHT22;65033;44.660;37.758;2023-01-19T04:08:01;27.28;38.98
75985;DHT22;65033;44.660;37.758;2023-01-19T04:09:05;27.28;38.94
75985;DHT22;65033;44.660;37.758;2023-01-19T04:10:09;27.28;39.03
75985;DHT22;65033;44.660;37.758;2023-01-19T04:11:14;27.28;39.04
75985;DHT22;65033;44.660;37.758;2023-01-19T04:12:17;27.28;39.07
75985;DHT22;65033;44.660;37.758;2023-01-19T04:13:22;27.28;39.11
75985;DHT22;65033;44.660;37.758;2023-01-19T04:14:26;27.27;39.07
75985;DHT22;65033;44.660;37.758;2023-01-19T04:15:30;27.27;39.04
75985;DHT22;65033;44.660;37.758;2023-01-19T04:16:33;27.27;39.05
75985;DHT22;65033;44.660;37.758;2023-01-19T04:17:37;27.27;39.01
75985;DHT22;65033;44.660;37.758;2023-01-19T04:18:41;27.28;38.94
75985;DHT22;65033;44.660;37.758;2023-01-19T04:19:44;27.27;39.07
75985;DHT22;65033;44.660;37.758;2023-01-19T04:20:47;27.28;39.03
75985;DHT22;65033;44.660;37.758;2023-01-19T04:21:51;27.27;38.82
75985;DHT22;65033;44.660;37.758;2023-01-19T04:22:57;27.27;38.88
75985;DHT22;65033;44.660;37.758;2023-01-19T04:24:01;27.28;38.76
75985;DHT22;65033;44.660;37.758;2023-01-19T04:25:05;27.28;38.82
75985;DHT22;65033;44.660;37.758;2023-01-19T04:26:09;27.28;38.80
75985;DHT22;65033;44.660;37.758;2023-01-19T04:27:12;27.29;38.84
75985;DHT22;65033;44.660;37.758;2023-01-19T04:28:18;27.28;38.84
75985;DHT22;65033;44.660;37.758;2023-01-19T04:29:22;27.29;38.80
75985;DHT22;65033;44.660;37.758;2023-01-19T04:30:26;27.28;38.78
75985;DHT22;65033;44.660;37.758;2023-01-19T04:31:30;27.29;38.77
75985;DHT22;65033;44.660;37.758;2023-01-19T04:32:33;27.28;38.73
75985;DHT22;65033;44.660;37.758;2023-01-19T04:33:36;27.29;38.66
75985;DHT22;65033;44.660;37.758;2023-01-19T04:34:40;27.29;38.63
75985;DHT22;65033;44.660;37.758;2023-01-19T04:35:43;27.30;38.69
75985;DHT22;65033;44.660;37.758;2023-01-19T04:36:47;27.29;38.65
75985;DHT22;65033;44.660;37.758;2023-01-19T04:37:52;27.30;38.63
75985;DHT22;65033;44.660;37.758;2023-01-19T04:38:56;27.30;38.40
75985;DHT22;65033;44.660;37.758;2023-01-19T04:40:03;27.30;38.55
75985;DHT22;65033;44.660;37.758;2023-01-19T04:41:06;27.30;38.49
75985;DHT22;65033;44.660;37.758;2023-01-19T04:42:10;27.30;38.58
75985;DHT22;65033;44.660;37.758;2023-01-19T04:43:13;27.30;38.43
75985;DHT22;65033;44.660;37.758;2023-01-19T04:44:16;27.30;38.43
75985;DHT22;65033;44.660;37.758;2023-01-19T04:45:21;27.30;38.37
75985;DHT22;65033;44.660;37.758;2023-01-19T04:46:24;27.29;38.45
75985;DHT22;65033;44.660;37.758;2023-01-19T04:47:28;27.29;38.43
75985;DHT22;65033;44.660;37.758;2023-01-19T04:48:31;27.31;38.32
75985;DHT22;65033;44.660;37.758;2023-01-19T04:49:34;27.30;38.44
75985;DHT22;65033;44.660;37.758;2023-01-19T04:50:41;27.30;38.36
75985;DHT22;65033;44.660;37.758;2023-01-19T04:51:44;27.30;38.33
75985;DHT22;65033;44.660;37.758;2023-01-19T04:52:47;27.30;38.42
75985;DHT22;65033;44.660;37.758;2023-01-19T04:53:51;27.30;38.47
75985;DHT22;65033;44.660;37.758;2023-01-19T04:54:54;27.29;38.55
75985;DHT22;65033;44.660;37.758;2023-01-19T04:55:58;27.30;38.53
75985;DHT22;65033;44.660;37.758;2023-01-19T04:57:03;27.29;38.49
75985;DHT22;65033;44.660;37.758;2023-01-19T04:58:06;27.30;38.51
75985;DHT22;65033;44.660;37.758;2023-01-19T04:59:09;27.30;38.54
75985;DHT22;65033;44.660;37.758;2023-01-19T05:00:13;27.31;38.55
75985;DHT22;65033;44.660;37.758;2023-01-19T05:01:21;27.31;38.53
75985;DHT22;65033;44.660;37.758;2023-01-19T05:02:25;27.30;38.55
75985;DHT22;65033;44.660;37.758;2023-01-19T05:03:29;27.31;38.59
75985;DHT22;65033;44.660;37.758;2023-01-19T05:04:32;27.32;38.56
75985;DHT22;65033;44.660;37.758;2023-01-19T05:05:35;27.32;38.60
75985;DHT22;65033;44.660;37.758;2023-01-19T05:06:41;27.31;38.68
75985;DHT22;65033;44.660;37.758;2023-01-19T05:07:44;27.31;38.72
75985;DHT22;65033;44.660;37.758;2023-01-19T05:08:47;27.30;38.71
75985;DHT22;65033;44.660;37.758;2023-01-19T05:09:50;27.30;38.73
75985;DHT22;65033;44.660;37.758;2023-01-19T05:10:54;27.31;38.75
75985;DHT22;65033;44.660;37.758;2023-01-19T05:12:01;27.30;38.75
75985;DHT22;65033;44.660;37.758;2023-01-19T05:13:05;27.32;38.78
75985;DHT22;65033;44.660;37.758;2023-01-19T05:14:08;27.31;38.78
75985;DHT22;65033;44.660;37.758;2023-01-19T05:15:11;27.32;38.78
75985;DHT22;65033;44.660;37.758;2023-01-19T05:16:18;27.31;38.81
75985;DHT22;65033;44.660;37.758;2023-01-19T05:17:22;27.31;38.81
75985;DHT22;65033;44.660;37.758;2023-01-19T05:18:26;27.32;38.82
75985;DHT22;65033;44.660;37.758;2023-01-19T05:19:29;27.31;38.84
75985;DHT22;65033;44.660;37.758;2023-01-19T05:20:32;27.32;38.86
75985;DHT22;65033;44.660;37.758;2023-01-19T05:21:35;27.31;38.78
75985;DHT22;65033;44.660;37.758;2023-01-19T05:22:39;27.32;38.56
75985;DHT22;65033;44.660;37.758;2023-01-19T05:23:42;27.30;38.25
75985;DHT22;65033;44.660;37.758;2023-01-19T05:24:46;27.30;37.51
75985;DHT22;65033;44.660;37.758;2023-01-19T05:25:49;27.31;37.30
75985;DHT22;65033;44.660;37.758;2023-01-19T05:26:52;27.30;37.75
75985;DHT22;65033;44.660;37.758;2023-01-19T05:27:55;27.30;37.82
75985;DHT22;65033;44.660;37.758;2023-01-19T05:28:59;27.29;37.87
75985;DHT22;65033;44.660;37.758;2023-01-19T05:30:03;27.29;37.94
75985;DHT22;65033;44.660;37.758;2023-01-19T05:31:07;27.30;37.95
75985;DHT22;65033;44.660;37.758;2023-01-19T05:32:10;27.30;38.01
75985;DHT22;65033;44.660;37.758;2023-01-19T05:33:17;27.31;37.98
75985;DHT22;65033;44.660;37.758;2023-01-19T05:34:20;27.34;37.96
75985;DHT22;65033;44.660;37.758;2023-01-19T05:35:23;27.36;37.87
75985;DHT22;65033;44.660;37.758;2023-01-19T05:36:37;27.36;37.79
75985;DHT22;65033;44.660;37.758;2023-01-19T05:37:40;27.37;37.73
75985;DHT22;65033;44.660;37.758;2023-01-19T05:38:43;27.37;37.70
75985;DHT22;65033;44.660;37.758;2023-01-19T05:39:47;27.37;37.69
75985;DHT22;65033;44.660;37.758;2023-01-19T05:40:55;27.40;37.64
75985;DHT22;65033;44.660;37.758;2023-01-19T05:41:59;27.40;37.62
75985;DHT22;65033;44.660;37.758;2023-01-19T05:43:03;27.42;37.57
75985;DHT22;65033;44.660;37.758;2023-01-19T05:44:08;27.44;37.82
75985;DHT22;65033;44.660;37.758;2023-01-19T05:45:12;27.43;38.20
75985;DHT22;65033;44.660;37.758;2023-01-19T05:46:15;27.47;38.49
75985;DHT22;65033;44.660;37.758;2023-01-19T05:47:18;27.51;38.95
75985;DHT22;65033;44.660;37.758;2023-01-19T05:48:23;27.52;39.05
75985;DHT22;65033;44.660;37.758;2023-01-19T05:49:26;27.54;39.01
75985;DHT22;65033;44.660;37.758;2023-01-19T05:50:30;27.57;38.95
75985;DHT22;65033;44.660;37.758;2023-01-19T05:51:34;27.57;38.90
75985;DHT22;65033;44.660;37.758;2023-01-19T05:52:42;27.61;38.84
75985;DHT22;65033;44.660;37.758;2023-01-19T05:53:46;27.64;38.77
75985;DHT22;65033;44.660;37.758;2023-01-19T05:54:49;27.66;38.69
75985;DHT22;65033;44.660;37.758;2023-01-19T05:55:58;27.67;38.62
75985;DHT22;65033;44.660;37.758;2023-01-19T05:57:01;27.71;38.52
75985;DHT22;65033;44.660;37.758;2023-01-19T05:58:06;27.73;38.46
75985;DHT22;65033;44.660;37.758;2023-01-19T05:59:09;27.73;38.36
75985;DHT22;65033;44.660;37.758;2023-01-19T06:00:13;27.76;38.34
75985;DHT22;65033;44.660;37.758;2023-01-19T06:01:17;27.79;38.40
75985;DHT22;65033;44.660;37.758;2023-01-19T06:02:21;27.82;38.49
75985;DHT22;65033;44.660;37.758;2023-01-19T06:03:32;27.82;38.46
75985;DHT22;65033;44.660;37.758;2023-01-19T06:04:35;27.85;38.42
75985;DHT22;65033;44.660;37.758;2023-01-19T06:05:39;27.87;38.33
75985;DHT22;65033;44.660;37.758;2023-01-19T06:06:42;27.90;38.21
75985;DHT22;65033;44.660;37.758;2023-01-19T06:07:46;27.91;38.15
75985;DHT22;65033;44.660;37.758;2023-01-19T06:08:49;27.94;38.10
75985;DHT22;65033;44.660;37.758;2023-01-19T06:09:53;27.97;38.12
75985;DHT22;65033;44.660;37.758;2023-01-19T06:10:58;27.98;38.08
75985;DHT22;65033;44.660;37.758;2023-01-19T06:12:02;28.01;38.05
75985;DHT22;65033;44.660;37.758;2023-01-19T06:13:06;28.03;38.06
75985;DHT22;65033;44.660;37.758;2023-01-19T06:14:11;28.04;38.06
75985;DHT22;65033;44.660;37.758;2023-01-19T06:15:15;28.09;38.01
75985;DHT22;65033;44.660;37.758;2023-01-19T06:16:18;28.09;38.00
75985;DHT22;65033;44.660;37.758;2023-01-19T06:17:24;28.12;38.00
75985;DHT22;65033;44.660;37.758;2023-01-19T06:18:27;28.13;37.97
75985;DHT22;65033;44.660;37.758;2023-01-19T06:19:35;28.15;37.97
75985;DHT22;65033;44.660;37.758;2023-01-19T06:20:38;28.19;37.98
75985;DHT22;65033;44.660;37.758;2023-01-19T06:21:41;28.20;37.95
75985;DHT22;65033;44.660;37.758;2023-01-19T06:22:51;28.24;37.88
75985;DHT22;65033;44.660;37.758;2023-01-19T06:23:54;28.26;37.88
75985;DHT22;65033;44.660;37.758;2023-01-19T06:25:00;28.27;37.88
75985;DHT22;65033;44.660;37.758;2023-01-19T06:26:03;28.29;37.85
75985;DHT22;65033;44.660;37.758;2023-01-19T06:27:06;28.31;37.85
75985;DHT22;65033;44.660;37.758;2023-01-19T06:28:10;28.32;37.91
75985;DHT22;65033;44.660;37.758;2023-01-19T06:29:13;28.35;37.86
75985;DHT22;65033;44.660;37.758;2023-01-19T06:30:17;28.39;37.85
75985;DHT22;65033;44.660;37.758;2023-01-19T06:31:21;28.41;37.85
75985;DHT22;65033;44.660;37.758;2023-01-19T06:32:24;28.43;37.81
75985;DHT22;65033;44.660;37.758;2023-01-19T06:33:28;28.42;37.80
75985;DHT22;65033;44.660;37.758;2023-01-19T06:34:31;28.44;37.75
75985;DHT22;65033;44.660;37.758;2023-01-19T06:35:36;28.47;37.75
75985;DHT22;65033;44.660;37.758;2023-01-19T06:36:39;28.49;37.75
75985;DHT22;65033;44.660;37.758;2023-01-19T06:37:45;28.52;37.65
75985;DHT22;65033;44.660;37.758;2023-01-19T06:38:48;28.52;37.69
75985;DHT22;65033;44.660;37.758;2023-01-19T06:39:52;28.55;37.61
75985;DHT22;65033;44.660;37.758;2023-01-19T06:40:56;28.57;37.47
75985;DHT22;65033;44.660;37.758;2023-01-19T06:42:05;28.59;36.73
75985;DHT22;65033;44.660;37.758;2023-01-19T06:43:11;28.60;36.67
75985;DHT22;65033;44.660;37.758;2023-01-19T06:44:15;28.62;36.92
75985;DHT22;65033;44.660;37.758;2023-01-19T06:45:21;28.63;37.03
75985;DHT22;65033;44.660;37.758;2023-01-19T06:46:24;28.68;37.10
75985;DHT22;65033;44.660;37.758;2023-01-19T06:47:28;28.68;37.06
75985;DHT22;65033;44.660;37.758;2023-01-19T06:48:31;28.71;36.89